Wetterdaten: Mittwoch, 10.03.2010
Datum Zeit Temp. A. Feuchte A. Luftdruck Regen Wind Richtung Richtung Sonnenschein UV Solar Windben
10.03.2010 00:00 -3,1 C 66 % 1028,6 hPa 0,0 mm 0,0 km/h (0 Bft) O-SO 112 0 min 0 UV-I 0 W/m 6,4 km/h (2 Bft)
10.03.2010 00:10 -2,9 C 67 % 1028,5 hPa 0,0 mm 0,0 km/h (0 Bft) O-SO 112 0 min 0 UV-I 0 W/m 1,6 km/h (1 Bft)
10.03.2010 00:20 -2,9 C 71 % 1028,4 hPa 0,0 mm 0,0 km/h (0 Bft) O-SO 112 0 min 0 UV-I 0 W/m 1,6 km/h (1 Bft)
10.03.2010 00:30 -3,1 C 72 % 1028,3 hPa 0,0 mm 0,0 km/h (0 Bft) N 0 0 min 0 UV-I 0 W/m 0,0 km/h (0 Bft)
10.03.2010 00:40 -3,3 C 71 % 1028,3 hPa 0,0 mm 0,0 km/h (0 Bft) O-SO 112 0 min 0 UV-I 0 W/m 1,6 km/h (1 Bft)
10.03.2010 00:50 -3,6 C 71 % 1028,3 hPa 0,0 mm 0,0 km/h (0 Bft) O-SO 112 0 min 0 UV-I 0 W/m 1,6 km/h (1 Bft)
10.03.2010 01:00 -3,8 C 72 % 1028,3 hPa 0,0 mm 0,0 km/h (0 Bft) N 0 0 min 0 UV-I 0 W/m 0,0 km/h (0 Bft)
10.03.2010 01:10 -4,1 C 73 % 1028,3 hPa 0,0 mm 0,0 km/h (0 Bft) O-SO 112 0 min 0 UV-I 0 W/m 3,2 km/h (1 Bft)
10.03.2010 01:20 -4,3 C 73 % 1028,3 hPa 0,0 mm 0,0 km/h (0 Bft) O-SO 112 0 min 0 UV-I 0 W/m 1,6 km/h (1 Bft)
10.03.2010 01:30 -4,4 C 74 % 1028,2 hPa 0,0 mm 0,0 km/h (0 Bft) N 0 0 min 0 UV-I 0 W/m 0,0 km/h (0 Bft)
10.03.2010 01:40 -4,4 C 75 % 1028,1 hPa 0,0 mm 0,0 km/h (0 Bft) N 0 0 min 0 UV-I 0 W/m 0,0 km/h (0 Bft)
10.03.2010 01:50 -4,3 C 76 % 1028,1 hPa 0,0 mm 0,0 km/h (0 Bft) N 0 0 min 0 UV-I 0 W/m 0,0 km/h (0 Bft)
10.03.2010 02:00 -4,4 C 77 % 1028,1 hPa 0,0 mm 0,0 km/h (0 Bft) N 0 0 min 0 UV-I 0 W/m 0,0 km/h (0 Bft)
10.03.2010 02:10 -4,6 C 77 % 1027,9 hPa 0,0 mm 0,0 km/h (0 Bft) N 0 0 min 0 UV-I 0 W/m 0,0 km/h (0 Bft)
10.03.2010 02:20 -4,7 C 78 % 1027,9 hPa 0,0 mm 0,0 km/h (0 Bft) O-SO 112 0 min 0 UV-I 0 W/m 1,6 km/h (1 Bft)
10.03.2010 02:30 -4,6 C 79 % 1027,9 hPa 0,0 mm 0,0 km/h (0 Bft) O-SO 112 0 min 0 UV-I 0 W/m 3,2 km/h (1 Bft)
10.03.2010 02:40 -4,4 C 78 % 1027,9 hPa 0,0 mm 0,0 km/h (0 Bft) O-SO 112 0 min 0 UV-I 0 W/m 1,6 km/h (1 Bft)
10.03.2010 02:50 -4,5 C 76 % 1027,8 hPa 0,0 mm 0,0 km/h (0 Bft) O-SO 112 0 min 0 UV-I 0 W/m 3,2 km/h (1 Bft)
10.03.2010 03:00 -4,6 C 76 % 1027,7 hPa 0,0 mm 0,0 km/h (0 Bft) O-SO 112 0 min 0 UV-I 0 W/m 3,2 km/h (1 Bft)
10.03.2010 03:10 -4,7 C 76 % 1027,5 hPa 0,0 mm 0,0 km/h (0 Bft) O-SO 112 0 min 0 UV-I 0 W/m 1,6 km/h (1 Bft)
10.03.2010 03:20 -4,8 C 77 % 1027,5 hPa 0,0 mm 0,0 km/h (0 Bft) N 0 0 min 0 UV-I 0 W/m 0,0 km/h (0 Bft)
10.03.2010 03:30 -4,9 C 77 % 1027,5 hPa 0,0 mm 0,0 km/h (0 Bft) N 0 0 min 0 UV-I 0 W/m 0,0 km/h (0 Bft)
10.03.2010 03:40 -5,0 C 78 % 1027,4 hPa 0,0 mm 0,0 km/h (0 Bft) N 0 0 min 0 UV-I 0 W/m 0,0 km/h (0 Bft)
10.03.2010 03:50 -5,0 C 78 % 1027,3 hPa 0,0 mm 0,0 km/h (0 Bft) N 0 0 min 0 UV-I 0 W/m 0,0 km/h (0 Bft)
10.03.2010 04:00 -5,1 C 78 % 1027,2 hPa 0,0 mm 0,0 km/h (0 Bft) N 0 0 min 0 UV-I 0 W/m 0,0 km/h (0 Bft)
10.03.2010 04:10 -5,2 C 79 % 1027,1 hPa 0,0 mm 0,0 km/h (0 Bft) O-SO 112 0 min 0 UV-I 0 W/m 1,6 km/h (1 Bft)
10.03.2010 04:20 -5,2 C 79 % 1027,1 hPa 0,0 mm 0,0 km/h (0 Bft) N 0 0 min 0 UV-I 0 W/m 0,0 km/h (0 Bft)
10.03.2010 04:30 -5,2 C 81 % 1027,2 hPa 0,0 mm 0,0 km/h (0 Bft) N 0 0 min 0 UV-I 0 W/m 0,0 km/h (0 Bft)
10.03.2010 04:40 -5,1 C 80 % 1027,1 hPa 0,0 mm 0,0 km/h (0 Bft) O-SO 112 0 min 0 UV-I 0 W/m 3,2 km/h (1 Bft)
10.03.2010 04:50 -5,2 C 80 % 1027,1 hPa 0,0 mm 0,0 km/h (0 Bft) O-SO 112 0 min 0 UV-I 0 W/m 1,6 km/h (1 Bft)
10.03.2010 05:00 -5,4 C 80 % 1027,1 hPa 0,0 mm 0,0 km/h (0 Bft) O-SO 112 0 min 0 UV-I 0 W/m 1,6 km/h (1 Bft)
10.03.2010 05:10 -5,6 C 79 % 1027,1 hPa 0,0 mm 0,0 km/h (0 Bft) N 0 0 min 0 UV-I 0 W/m 0,0 km/h (0 Bft)
10.03.2010 05:20 -5,8 C 80 % 1027,0 hPa 0,0 mm 0,0 km/h (0 Bft) N 0 0 min 0 UV-I 0 W/m 0,0 km/h (0 Bft)
10.03.2010 05:30 -5,9 C 80 % 1027,1 hPa 0,0 mm 0,0 km/h (0 Bft) N 0 0 min 0 UV-I 0 W/m 0,0 km/h (0 Bft)
10.03.2010 05:40 -6,0 C 80 % 1027,1 hPa 0,0 mm 0,0 km/h (0 Bft) N 0 0 min 0 UV-I 0 W/m 0,0 km/h (0 Bft)
10.03.2010 05:50 -6,2 C 81 % 1027,1 hPa 0,0 mm 0,0 km/h (0 Bft) O-SO 112 0 min 0 UV-I 0 W/m 1,6 km/h (1 Bft)
10.03.2010 06:00 -6,3 C 81 % 1027,1 hPa 0,0 mm 0,0 km/h (0 Bft) O-SO 112 0 min 0 UV-I 0 W/m 1,6 km/h (1 Bft)
10.03.2010 06:10 -6,6 C 81 % 1027,1 hPa 0,0 mm 0,0 km/h (0 Bft) N 0 0 min 0 UV-I 0 W/m 0,0 km/h (0 Bft)
10.03.2010 06:20 -6,7 C 82 % 1027,2 hPa 0,0 mm 0,0 km/h (0 Bft) N 0 0 min 0 UV-I 0 W/m 0,0 km/h (0 Bft)
10.03.2010 06:30 -6,7 C 82 % 1027,2 hPa 0,0 mm 0,0 km/h (0 Bft) N 0 0 min 0 UV-I 0 W/m 0,0 km/h (0 Bft)
10.03.2010 06:40 -6,7 C 82 % 1027,2 hPa 0,0 mm 0,0 km/h (0 Bft) N 0 0 min 0 UV-I 0 W/m 0,0 km/h (0 Bft)
10.03.2010 06:50 -6,8 C 82 % 1027,3 hPa 0,0 mm 0,0 km/h (0 Bft) N 0 0 min 0 UV-I 0 W/m 0,0 km/h (0 Bft)
10.03.2010 07:00 -6,8 C 82 % 1027,3 hPa 0,0 mm 0,0 km/h (0 Bft) N 0 0 min 0 UV-I 7 W/m 0,0 km/h (0 Bft)
10.03.2010 07:10 -6,8 C 82 % 1027,3 hPa 0,0 mm 0,0 km/h (0 Bft) N 0 0 min 0 UV-I 12 W/m 0,0 km/h (0 Bft)
10.03.2010 07:20 -6,8 C 83 % 1027,4 hPa 0,0 mm 0,0 km/h (0 Bft) N 0 0 min 0 UV-I 18 W/m 0,0 km/h (0 Bft)
10.03.2010 07:30 -6,7 C 84 % 1027,3 hPa 0,0 mm 0,0 km/h (0 Bft) O-SO 112 10 min 0 UV-I 60 W/m 1,6 km/h (1 Bft)
10.03.2010 07:40 -6,3 C 84 % 1027,5 hPa 0,0 mm 0,0 km/h (0 Bft) O-SO 112 10 min 0 UV-I 86 W/m 3,2 km/h (1 Bft)
10.03.2010 07:50 -6,0 C 84 % 1027,5 hPa 0,0 mm 0,0 km/h (0 Bft) N 0 10 min 0 UV-I 114 W/m 0,0 km/h (0 Bft)
10.03.2010 08:00 -5,6 C 84 % 1027,4 hPa 0,0 mm 0,0 km/h (0 Bft) N 0 10 min 0 UV-I 139 W/m 0,0 km/h (0 Bft)
10.03.2010 08:10 -4,9 C 84 % 1027,3 hPa 0,0 mm 0,0 km/h (0 Bft) N 0 10 min 0 UV-I 165 W/m 0,0 km/h (0 Bft)
10.03.2010 08:20 -4,0 C 83 % 1027,3 hPa 0,0 mm 0,0 km/h (0 Bft) N 0 10 min 1 UV-I 193 W/m 0,0 km/h (0 Bft)
10.03.2010 08:30 -3,2 C 78 % 1027,3 hPa 0,0 mm 0,0 km/h (0 Bft) O-SO 112 10 min 1 UV-I 227 W/m 1,6 km/h (1 Bft)
10.03.2010 08:40 -2,6 C 71 % 1027,4 hPa 0,0 mm 0,0 km/h (0 Bft) O-SO 112 10 min 1 UV-I 250 W/m 1,6 km/h (1 Bft)
10.03.2010 08:50 -2,2 C 70 % 1027,5 hPa 0,0 mm 0,0 km/h (0 Bft) O-SO 112 10 min 1 UV-I 265 W/m 1,6 km/h (1 Bft)
10.03.2010 09:00 -1,8 C 70 % 1027,4 hPa 0,0 mm 0,0 km/h (0 Bft) O-SO 112 10 min 1 UV-I 295 W/m 3,2 km/h (1 Bft)
10.03.2010 09:10 -1,4 C 67 % 1027,4 hPa 0,0 mm 0,0 km/h (0 Bft) O-SO 112 10 min 1 UV-I 318 W/m 3,2 km/h (1 Bft)
10.03.2010 09:20 -1,0 C 66 % 1027,2 hPa 0,0 mm 0,0 km/h (0 Bft) W 270 10 min 1 UV-I 345 W/m 6,4 km/h (2 Bft)
10.03.2010 09:30 -0,6 C 65 % 1027,4 hPa 0,0 mm 0,0 km/h (0 Bft) SW 225 10 min 1 UV-I 369 W/m 3,2 km/h (1 Bft)
10.03.2010 09:40 0,3 C 62 % 1027,2 hPa 0,0 mm 4,8 km/h (1 Bft) O 90 10 min 1 UV-I 396 W/m 9,7 km/h (2 Bft)
10.03.2010 09:50 0,9 C 61 % 1027,1 hPa 0,0 mm 1,6 km/h (1 Bft) O-NO 67 10 min 2 UV-I 420 W/m 11,3 km/h (2 Bft)
10.03.2010 10:00 1,4 C 60 % 1027,0 hPa 0,0 mm 4,8 km/h (1 Bft) O 90 10 min 2 UV-I 445 W/m 11,3 km/h (2 Bft)
10.03.2010 10:10 1,7 C 58 % 1026,9 hPa 0,0 mm 4,8 km/h (1 Bft) O 90 10 min 2 UV-I 469 W/m 14,5 km/h (3 Bft)
10.03.2010 10:20 2,2 C 56 % 1026,9 hPa 0,0 mm 3,2 km/h (1 Bft) O-NO 67 10 min 2 UV-I 489 W/m 14,5 km/h (3 Bft)
10.03.2010 10:30 2,4 C 55 % 1026,9 hPa 0,0 mm 6,4 km/h (2 Bft) O-NO 67 10 min 2 UV-I 510 W/m 17,7 km/h (3 Bft)
10.03.2010 10:40 2,6 C 55 % 1026,9 hPa 0,0 mm 6,4 km/h (2 Bft) O 90 10 min 2 UV-I 529 W/m 16,1 km/h (3 Bft)
10.03.2010 10:50 2,8 C 55 % 1026,9 hPa 0,0 mm 4,8 km/h (1 Bft) O 90 10 min 2 UV-I 543 W/m 17,7 km/h (3 Bft)
10.03.2010 11:00 3,1 C 53 % 1026,8 hPa 0,0 mm 6,4 km/h (2 Bft) O 90 10 min 2 UV-I 561 W/m 14,5 km/h (3 Bft)
10.03.2010 11:10 3,3 C 54 % 1026,8 hPa 0,0 mm 8,0 km/h (2 Bft) O 90 10 min 2 UV-I 575 W/m 17,7 km/h (3 Bft)
10.03.2010 11:20 3,6 C 53 % 1026,7 hPa 0,0 mm 4,8 km/h (1 Bft) O 90 10 min 2 UV-I 594 W/m 16,1 km/h (3 Bft)
10.03.2010 11:30 4,0 C 52 % 1026,7 hPa 0,0 mm 6,4 km/h (2 Bft) O 90 10 min 3 UV-I 601 W/m 16,1 km/h (3 Bft)
10.03.2010 11:40 3,9 C 52 % 1026,7 hPa 0,0 mm 6,4 km/h (2 Bft) O 90 10 min 3 UV-I 613 W/m 16,1 km/h (3 Bft)
10.03.2010 11:50 4,2 C 50 % 1026,5 hPa 0,0 mm 4,8 km/h (1 Bft) O 90 10 min 3 UV-I 628 W/m 16,1 km/h (3 Bft)
10.03.2010 12:00 4,4 C 50 % 1026,5 hPa 0,0 mm 6,4 km/h (2 Bft) O 90 10 min 3 UV-I 628 W/m 17,7 km/h (3 Bft)
10.03.2010 12:10 4,6 C 49 % 1026,4 hPa 0,0 mm 4,8 km/h (1 Bft) O 90 10 min 3 UV-I 638 W/m 17,7 km/h (3 Bft)
10.03.2010 12:20 4,9 C 48 % 1026,2 hPa 0,0 mm 6,4 km/h (2 Bft) O 90 10 min 3 UV-I 645 W/m 16,1 km/h (3 Bft)
10.03.2010 12:30 5,2 C 49 % 1026,0 hPa 0,0 mm 4,8 km/h (1 Bft) O 90 10 min 3 UV-I 649 W/m 14,5 km/h (3 Bft)
10.03.2010 12:40 5,6 C 46 % 1026,0 hPa 0,0 mm 4,8 km/h (1 Bft) O 90 10 min 3 UV-I 650 W/m 11,3 km/h (2 Bft)
10.03.2010 12:50 5,6 C 46 % 1025,8 hPa 0,0 mm 4,8 km/h (1 Bft) O 90 10 min 3 UV-I 650 W/m 11,3 km/h (2 Bft)
10.03.2010 13:00 5,9 C 47 % 1025,5 hPa 0,0 mm 8,0 km/h (2 Bft) O 90 10 min 3 UV-I 650 W/m 20,9 km/h (4 Bft)
10.03.2010 13:10 5,8 C 48 % 1025,3 hPa 0,0 mm 6,4 km/h (2 Bft) O 90 10 min 3 UV-I 649 W/m 17,7 km/h (3 Bft)
10.03.2010 13:20 6,0 C 46 % 1025,1 hPa 0,0 mm 6,4 km/h (2 Bft) O 90 10 min 3 UV-I 645 W/m 17,7 km/h (3 Bft)
10.03.2010 13:30 6,2 C 47 % 1024,9 hPa 0,0 mm 6,4 km/h (2 Bft) O-NO 67 10 min 3 UV-I 638 W/m 22,5 km/h (4 Bft)
10.03.2010 13:40 6,1 C 48 % 1024,8 hPa 0,0 mm 6,4 km/h (2 Bft) O-NO 67 10 min 3 UV-I 631 W/m 22,5 km/h (4 Bft)
10.03.2010 13:50 6,2 C 48 % 1024,6 hPa 0,0 mm 6,4 km/h (2 Bft) O-NO 67 10 min 3 UV-I 626 W/m 19,3 km/h (3 Bft)
10.03.2010 14:00 6,4 C 48 % 1024,3 hPa 0,0 mm 6,4 km/h (2 Bft) O-NO 67 10 min 2 UV-I 613 W/m 19,3 km/h (3 Bft)
10.03.2010 14:10 6,6 C 49 % 1024,1 hPa 0,0 mm 4,8 km/h (1 Bft) O-NO 67 10 min 2 UV-I 601 W/m 17,7 km/h (3 Bft)
10.03.2010 14:20 6,9 C 47 % 1023,9 hPa 0,0 mm 6,4 km/h (2 Bft) O-NO 67 10 min 2 UV-I 587 W/m 16,1 km/h (3 Bft)
10.03.2010 14:30 6,9 C 48 % 1023,7 hPa 0,0 mm 4,8 km/h (1 Bft) O 90 10 min 2 UV-I 573 W/m 14,5 km/h (3 Bft)
10.03.2010 14:40 6,9 C 48 % 1023,6 hPa 0,0 mm 6,4 km/h (2 Bft) O-NO 67 10 min 2 UV-I 555 W/m 17,7 km/h (3 Bft)
10.03.2010 14:50 6,6 C 50 % 1023,5 hPa 0,0 mm 4,8 km/h (1 Bft) O-NO 67 10 min 2 UV-I 538 W/m 16,1 km/h (3 Bft)
10.03.2010 15:00 6,9 C 49 % 1023,3 hPa 0,0 mm 6,4 km/h (2 Bft) O 90 10 min 2 UV-I 522 W/m 16,1 km/h (3 Bft)
10.03.2010 15:10 6,8 C 49 % 1023,2 hPa 0,0 mm 4,8 km/h (1 Bft) O-NO 67 10 min 2 UV-I 501 W/m 17,7 km/h (3 Bft)
10.03.2010 15:20 6,7 C 50 % 1023,2 hPa 0,0 mm 4,8 km/h (1 Bft) O-NO 67 10 min 2 UV-I 480 W/m 16,1 km/h (3 Bft)
10.03.2010 15:30 6,6 C 50 % 1023,1 hPa 0,0 mm 4,8 km/h (1 Bft) O-NO 67 10 min 1 UV-I 457 W/m 14,5 km/h (3 Bft)
10.03.2010 15:40 6,6 C 50 % 1023,0 hPa 0,0 mm 6,4 km/h (2 Bft) O 90 10 min 1 UV-I 432 W/m 17,7 km/h (3 Bft)
10.03.2010 15:50 6,4 C 51 % 1022,8 hPa 0,0 mm 6,4 km/h (2 Bft) O 90 10 min 1 UV-I 408 W/m 19,3 km/h (3 Bft)
10.03.2010 16:00 6,3 C 51 % 1022,7 hPa 0,0 mm 6,4 km/h (2 Bft) O 90 10 min 1 UV-I 381 W/m 17,7 km/h (3 Bft)
10.03.2010 16:10 6,1 C 52 % 1022,5 hPa 0,0 mm 8,0 km/h (2 Bft) O-NO 67 10 min 1 UV-I 357 W/m 19,3 km/h (3 Bft)
10.03.2010 16:20 5,8 C 52 % 1022,3 hPa 0,0 mm 8,0 km/h (2 Bft) O 90 10 min 1 UV-I 327 W/m 19,3 km/h (3 Bft)
10.03.2010 16:30 5,8 C 53 % 1022,2 hPa 0,0 mm 8,0 km/h (2 Bft) O 90 10 min 1 UV-I 302 W/m 22,5 km/h (4 Bft)
10.03.2010 16:40 5,6 C 54 % 1022,0 hPa 0,0 mm 6,4 km/h (2 Bft) O-NO 67 10 min 1 UV-I 279 W/m 16,1 km/h (3 Bft)
10.03.2010 16:50 5,7 C 55 % 1022,0 hPa 0,0 mm 4,8 km/h (1 Bft) O-NO 67 10 min 1 UV-I 251 W/m 16,1 km/h (3 Bft)
10.03.2010 17:00 5,4 C 54 % 1022,0 hPa 0,0 mm 6,4 km/h (2 Bft) N-NO 22 10 min 1 UV-I 220 W/m 16,1 km/h (3 Bft)
10.03.2010 17:10 4,9 C 57 % 1022,1 hPa 0,0 mm 4,8 km/h (1 Bft) N-NO 22 10 min 0 UV-I 190 W/m 16,1 km/h (3 Bft)
10.03.2010 17:20 4,6 C 58 % 1022,1 hPa 0,0 mm 3,2 km/h (1 Bft) O-NO 67 10 min 0 UV-I 162 W/m 11,3 km/h (2 Bft)
10.03.2010 17:30 4,2 C 58 % 1022,4 hPa 0,0 mm 4,8 km/h (1 Bft) O-NO 67 10 min 0 UV-I 134 W/m 16,1 km/h (3 Bft)
10.03.2010 17:40 4,0 C 59 % 1022,4 hPa 0,0 mm 3,2 km/h (1 Bft) NO 45 10 min 0 UV-I 104 W/m 14,5 km/h (3 Bft)
10.03.2010 17:50 3,6 C 61 % 1022,5 hPa 0,0 mm 4,8 km/h (1 Bft) O 90 10 min 0 UV-I 74 W/m 16,1 km/h (3 Bft)
10.03.2010 18:00 3,1 C 61 % 1022,6 hPa 0,0 mm 3,2 km/h (1 Bft) NO 45 10 min 0 UV-I 44 W/m 9,7 km/h (2 Bft)
10.03.2010 18:10 2,7 C 62 % 1022,7 hPa 0,0 mm 3,2 km/h (1 Bft) O-NO 67 0 min 0 UV-I 16 W/m 6,4 km/h (2 Bft)
10.03.2010 18:20 2,3 C 64 % 1022,7 hPa 0,0 mm 3,2 km/h (1 Bft) O-NO 67 0 min 0 UV-I 11 W/m 8,0 km/h (2 Bft)
10.03.2010 18:30 2,0 C 65 % 1022,7 hPa 0,0 mm 1,6 km/h (1 Bft) O-NO 67 0 min 0 UV-I 5 W/m 9,7 km/h (2 Bft)
10.03.2010 18:40 1,5 C 66 % 1022,7 hPa 0,0 mm 1,6 km/h (1 Bft) NO 45 0 min 0 UV-I 0 W/m 8,0 km/h (2 Bft)
10.03.2010 18:50 1,2 C 67 % 1022,7 hPa 0,0 mm 1,5 km/h (1 Bft) N-NO 28 0 min 0 UV-I 0 W/m 4,8 km/h (1 Bft)
10.03.2010 19:00 1,1 C 67 % 1022,8 hPa 0,0 mm 3,2 km/h (1 Bft) NO 53 0 min 0 UV-I 0 W/m 11,3 km/h (2 Bft)
10.03.2010 19:10 0,7 C 68 % 1022,9 hPa 0,0 mm 2,6 km/h (1 Bft) N-NO 26 0 min 0 UV-I 0 W/m 11,3 km/h (2 Bft)
10.03.2010 19:20 0,7 C 68 % 1022,9 hPa 0,0 mm 3,9 km/h (1 Bft) N-NO 28 0 min 0 UV-I 0 W/m 17,7 km/h (3 Bft)
10.03.2010 19:30 0,5 C 69 % 1022,9 hPa 0,0 mm 4,8 km/h (1 Bft) O-NO 61 0 min 0 UV-I 0 W/m 16,1 km/h (3 Bft)
10.03.2010 19:40 0,4 C 69 % 1023,0 hPa 0,0 mm 3,2 km/h (1 Bft) O-NO 65 0 min 0 UV-I 0 W/m 9,7 km/h (2 Bft)
10.03.2010 19:50 0,3 C 70 % 1023,1 hPa 0,0 mm 3,2 km/h (1 Bft) O-NO 67 0 min 0 UV-I 0 W/m 9,7 km/h (2 Bft)
10.03.2010 20:00 0,2 C 70 % 1023,2 hPa 0,0 mm 3,2 km/h (1 Bft) O-NO 67 0 min 0 UV-I 0 W/m 11,3 km/h (2 Bft)
10.03.2010 20:10 0,1 C 71 % 1023,1 hPa 0,0 mm 4,8 km/h (1 Bft) O-NO 67 0 min 0 UV-I 0 W/m 11,3 km/h (2 Bft)
10.03.2010 20:20 -0,1 C 71 % 1023,3 hPa 0,0 mm 3,2 km/h (1 Bft) O-NO 67 0 min 0 UV-I 0 W/m 11,3 km/h (2 Bft)
10.03.2010 20:30 -0,3 C 72 % 1023,3 hPa 0,0 mm 3,2 km/h (1 Bft) NO 45 0 min 0 UV-I 0 W/m 9,7 km/h (2 Bft)
10.03.2010 20:40 -0,3 C 73 % 1023,3 hPa 0,0 mm 4,8 km/h (1 Bft) O-NO 67 0 min 0 UV-I 0 W/m 11,3 km/h (2 Bft)
10.03.2010 20:50 -0,4 C 73 % 1023,3 hPa 0,0 mm 1,6 km/h (1 Bft) O-NO 67 0 min 0 UV-I 0 W/m 8,0 km/h (2 Bft)
10.03.2010 21:00 -0,6 C 74 % 1023,2 hPa 0,0 mm 1,6 km/h (1 Bft) NO 45 0 min 0 UV-I 0 W/m 9,7 km/h (2 Bft)
10.03.2010 21:10 -0,6 C 74 % 1023,0 hPa 0,0 mm 1,6 km/h (1 Bft) O 90 0 min 0 UV-I 0 W/m 6,4 km/h (2 Bft)
10.03.2010 21:20 -0,8 C 75 % 1022,8 hPa 0,0 mm 1,6 km/h (1 Bft) N-NO 22 0 min 0 UV-I 0 W/m 8,0 km/h (2 Bft)
10.03.2010 21:30 -0,8 C 75 % 1022,7 hPa 0,0 mm 1,6 km/h (1 Bft) N-NO 22 0 min 0 UV-I 0 W/m 9,7 km/h (2 Bft)
10.03.2010 21:40 -0,7 C 75 % 1022,4 hPa 0,0 mm 3,2 km/h (1 Bft) N-NO 22 0 min 0 UV-I 0 W/m 11,3 km/h (2 Bft)
10.03.2010 21:50 -0,7 C 76 % 1022,5 hPa 0,0 mm 1,6 km/h (1 Bft) O-NO 67 0 min 0 UV-I 0 W/m 4,8 km/h (1 Bft)
10.03.2010 22:00 -0,9 C 76 % 1022,5 hPa 0,0 mm 1,6 km/h (1 Bft) O-NO 67 0 min 0 UV-I 0 W/m 4,8 km/h (1 Bft)
10.03.2010 22:10 -1,1 C 77 % 1022,5 hPa 0,0 mm 1,6 km/h (1 Bft) NO 45 0 min 0 UV-I 0 W/m 8,0 km/h (2 Bft)
10.03.2010 22:20 -1,2 C 78 % 1022,3 hPa 0,0 mm 3,2 km/h (1 Bft) NO 45 0 min 0 UV-I 0 W/m 9,7 km/h (2 Bft)
10.03.2010 22:30 -1,2 C 78 % 1022,2 hPa 0,0 mm 3,2 km/h (1 Bft) O-NO 67 0 min 0 UV-I 0 W/m 9,7 km/h (2 Bft)
10.03.2010 22:40 -1,2 C 78 % 1022,1 hPa 0,0 mm 3,2 km/h (1 Bft) O 90 0 min 0 UV-I 0 W/m 9,7 km/h (2 Bft)
10.03.2010 22:50 -1,2 C 78 % 1022,1 hPa 0,0 mm 3,2 km/h (1 Bft) O-NO 67 0 min 0 UV-I 0 W/m 9,7 km/h (2 Bft)
10.03.2010 23:00 -1,3 C 79 % 1022,2 hPa 0,0 mm 3,2 km/h (1 Bft) O-NO 67 0 min 0 UV-I 0 W/m 9,7 km/h (2 Bft)
10.03.2010 23:10 -1,4 C 79 % 1022,1 hPa 0,0 mm 3,2 km/h (1 Bft) O-NO 67 0 min 0 UV-I 0 W/m 8,0 km/h (2 Bft)
10.03.2010 23:20 -1,6 C 80 % 1022,0 hPa 0,0 mm 1,6 km/h (1 Bft) O-NO 67 0 min 0 UV-I 0 W/m 6,4 km/h (2 Bft)
10.03.2010 23:30 -1,7 C 80 % 1022,1 hPa 0,0 mm 1,6 km/h (1 Bft) O-NO 67 0 min 0 UV-I 0 W/m 8,0 km/h (2 Bft)
10.03.2010 23:40 -1,7 C 81 % 1021,9 hPa 0,0 mm 1,6 km/h (1 Bft) O-NO 67 0 min 0 UV-I 0 W/m 8,0 km/h (2 Bft)
10.03.2010 23:50 -1,8 C 81 % 1021,8 hPa 0,0 mm 1,6 km/h (1 Bft) NO 45 0 min 0 UV-I 0 W/m 8,0 km/h (2 Bft)
_ Min-Zeit 06:30 12:40 23:50 - 00:00 - - - - - 00:30
Minimum _ -6,8 C 46 % 1021,8 hPa - 0,0 km/h (0 Bft) - - - - - 0,0 km/h (0 Bft)
_ Max-Zeit 14:30 07:30 00:00 00:00 11:10 - - 07:30 12:20 12:40 13:30
Maximum _ 7,1 C 84 % 1028,6 hPa 0,0 mm 8,0 km/h
O (2 Bft)
- - 10 min 3 UV-I 650 W/m 22,5 km/h
N-NW (4 Bft)
Durchschnitt _ -0,2 C 67 % 1025,3 hPa #0,0 mm 2,6 km/h (1 Bft) O-NO - #10:40 h 2 UV-I 387 W/m 8,5 km/h (2 Bft)